Flight Track Log - Related Links

Times and Time Zones

All times are in EDT time to prevent confusion due to time zone crossing. See the JIA4669 flight status page for this flight to view local times or setup timezone preferences in your user account.

Time Position Orientation Groundspeed Altitude Reporting Facility
EDT Latitude Longitude Course Direction KTS MPH feet Rate Location/Type
Mon 01:31:07 PM 38.8167 -77.0333 233° Southwest 166 191 1,300  Level Potomac TRACON
Mon 01:32:08 PM 38.7667 -77.0333 180° South 234 269 3,000 1,686 Climbing Potomac TRACON
Mon 01:33:00 PM 38.6927 -77.3312 237° Southwest  Level FlightAware Approximate
Mon 01:33:08 PM 38.7333 -77.1167 243° Southwest 268 308 4,700  Level Potomac TRACON
Mon 01:34:00 PM 38.6376 -77.4301 234° Southwest  Level FlightAware Approximate
Mon 01:34:02 PM 38.7167 -77.2000 256° West 270 311 6,900  Level Potomac TRACON
Mon 01:35:00 PM 38.5933 -77.5368 247° West  Level FlightAware Approximate
Mon 01:35:08 PM 38.6833 -77.3000 247° West 278 320 9,600  Level Potomac TRACON
Mon 01:36:00 PM 38.5453 -77.6411 233° Southwest  Level FlightAware Approximate
Mon 01:36:42 PM 38.6289 -77.4328 242° Southwest 302 348 11,700  Level Washington Center
Mon 01:37:46 PM 38.5844 -77.5422 243° Southwest 341 392 12,700 960 Climbing Washington Center
Mon 01:38:47 PM 38.5375 -77.6550 242° Southwest 352 405 13,700 984 Climbing Washington Center
Mon 01:39:48 PM 38.4858 -77.7694 240° Southwest 364 419 14,700 960 Climbing Washington Center
Mon 01:40:52 PM 38.4267 -77.8808 236° Southwest 374 430 15,700 1,016 Climbing Washington Center
Mon 01:41:52 PM 38.3672 -77.9939 236° Southwest 379 436 16,800 1,113 Climbing Washington Center
Mon 01:42:56 PM 38.2958 -78.1294 236° Southwest 380 437 18,000 1,056 Climbing Washington Center
Mon 01:43:57 PM 38.2364 -78.2422 236° Southwest 381 438 19,000 960 Climbing Washington Center
Mon 01:45:01 PM 38.1775 -78.3533 236° Southwest 381 438 20,000 960 Climbing Washington Center
Mon 01:46:02 PM 38.1211 -78.4606 236° Southwest 370 426 21,000 1,008 Climbing Washington Center
Mon 01:47:06 PM 38.0819 -78.5781 247° West 351 404 22,100 1,008 Climbing Washington Center
Mon 01:48:07 PM 38.0442 -78.6914 247° West 351 404 23,100 885 Climbing Washington Center
Mon 01:49:08 PM 38.0061 -78.8019 246° West 347 399 23,900 816 Climbing Washington Center
Mon 01:50:12 PM 37.9603 -78.9372 247° West 349 402 24,800 726 Climbing Washington Center
Mon 01:51:12 PM 37.9203 -79.0506 246° West 351 404 25,400 484 Climbing Washington Center
Mon 01:52:16 PM 37.8756 -79.1614 243° Southwest 353 406 25,800 432 Climbing Washington Center
Mon 01:53:17 PM 37.8206 -79.2694 237° Southwest 361 415 26,300 480 Climbing Washington Center
Mon 01:54:21 PM 37.7669 -79.3772 238° Southwest 363 418 26,800 528 Climbing Washington Center
Mon 01:55:22 PM 37.7008 -79.5106 238° Southwest 369 425 27,400 532 Climbing Washington Center
Mon 01:56:25 PM 37.6456 -79.6219 238° Southwest 374 430 27,900 439 Climbing Washington Center
Mon 01:57:25 PM 37.5883 -79.7328 237° Southwest 374 430 28,300 435 Climbing Washington Center
Mon 01:58:29 PM 37.5319 -79.8439 237° Southwest 374 430 28,800 480 Climbing Washington Center
Mon 01:59:30 PM 37.4694 -79.9669 237° Southwest 374 430 29,300 480 Climbing Washington Center
Mon 02:00:34 PM 37.4142 -80.0761 238° Southwest 373 429 29,800 336 Climbing Washington Center
Mon 02:01:35 PM 37.3594 -80.1831 237° Southwest 370 426 30,000 129 Climbing Washington Center
Mon 02:02:07 PM 37.3219 -80.2575 238° Southwest 383 441 30,000  Level Atlanta Center
Mon 02:03:07 PM 37.2631 -80.3725 237° Southwest 378 435 30,000  Level Atlanta Center
Mon 02:04:07 PM 37.2039 -80.4897 238° Southwest 389 448 30,000  Level Atlanta Center
Mon 02:05:07 PM 37.1425 -80.6072 237° Southwest 395 455 30,000  Level Atlanta Center
Mon 02:06:07 PM 37.0833 -80.7242 238° Southwest 401 461 30,000  Level Atlanta Center
Mon 02:07:07 PM 37.0367 -80.8536 246° West 406 467 30,000  Level Atlanta Center
Mon 02:08:07 PM 36.9900 -80.9828 246° West 406 467 30,000  Level Atlanta Center
Mon 02:09:07 PM 36.9431 -81.1119 246° West 406 467 30,000  Level Atlanta Center
Mon 02:10:07 PM 36.8961 -81.2433 246° West 406 467 30,000  Level Atlanta Center
Mon 02:11:07 PM 36.8508 -81.3722 246° West 406 467 30,000  Level Atlanta Center
Mon 02:12:07 PM 36.8017 -81.5033 245° Southwest 406 467 30,000  Level Atlanta Center
Mon 02:13:07 PM 36.7622 -81.6186 247° West 406 467 30,000  Level Atlanta Center
Mon 02:14:07 PM 36.7147 -81.7494 246° West 406 467 30,000  Level Atlanta Center
Mon 02:15:07 PM 36.6669 -81.8803 246° West 406 467 30,000 -750 Level Atlanta Center
Mon 02:16:07 PM 36.6192 -82.0136 246° West 412 474 28,500 -1,500 Descending Atlanta Center
Mon 02:17:07 PM 36.5672 -82.1492 245° Southwest 428 493 27,000 -1,650 Descending Atlanta Center
Mon 02:18:07 PM 36.5150 -82.2875 245° Southwest 433 498 25,200 -1,900 Descending Atlanta Center
Mon 02:19:07 PM 36.4669 -82.4228 246° West 433 498 23,200 -7,100 Descending Atlanta Center
Mon 02:20:07 PM 36.4122 -82.5656 245° Southwest 427 491 11,000 -2,050 Descending Atlanta Center
Mon 02:21:07 PM 36.3658 -82.6878 245° Southwest 413 475 19,100 3,050 Climbing Atlanta Center
Mon 02:22:07 PM 36.3211 -82.8069 245° Southwest 392 451 17,100 -2,000 Descending Atlanta Center
Mon 02:23:07 PM 36.2764 -82.9261 245° Southwest 386 444 15,100 -2,000 Descending Atlanta Center
Mon 02:24:07 PM 36.2356 -83.0347 245° Southwest 373 429 13,100 -1,850 Descending Atlanta Center
Mon 02:25:07 PM 36.1967 -83.1383 245° Southwest 347 399 11,400 -1,050 Descending Atlanta Center
Mon 02:26:07 PM 36.1619 -83.2339 246° West 319 367 11,000 -200 Descending Atlanta Center
Mon 02:27:07 PM 36.1272 -83.3217 244° Southwest 298 343 11,000 -250 Level Atlanta Center
Mon 02:28:07 PM 36.0900 -83.4117 243° Southwest 287 330 10,500 -900 Descending Atlanta Center
Mon 02:29:07 PM 36.0592 -83.4994 247° West 287 330 9,200 -1,250 Descending Atlanta Center
Mon 02:30:07 PM 36.0303 -83.5689 243° Southwest 274 315 8,000 -1,200 Descending Atlanta Center
Mon 02:31:07 PM 36.0033 -83.6408 245° Southwest 253 291 6,800 -1,300 Descending Atlanta Center
Mon 02:32:07 PM 35.9764 -83.7128 245° Southwest 237 273 5,400 -1,400 Descending Atlanta Center
Mon 02:33:07 PM 35.9517 -83.7797 245° Southwest 231 266 4,000 -800 Descending Atlanta Center
Mon 02:34:07 PM 35.9289 -83.8414 245° Southwest 219 252 3,800 -450 Descending Atlanta Center
Mon 02:35:07 PM 35.8997 -83.8825 229° Southwest 188 216 3,100 -700 Descending Atlanta Center

Login

Don't have an account? Register now (free) for customized features, flight alerts, and more!